createdAt,value
2023-03-30T00:00:22.259Z,28.70
2023-03-30T00:02:50.206Z,28.70
2023-03-30T00:05:17.283Z,28.70
2023-03-30T00:07:46.905Z,28.70
2023-03-30T00:10:17.132Z,28.70
2023-03-30T00:12:46.444Z,28.70
2023-03-30T00:15:14.767Z,28.70
2023-03-30T00:17:41.612Z,28.70
2023-03-30T00:20:10.975Z,28.70
2023-03-30T00:22:41.407Z,28.70
2023-03-30T00:25:12.404Z,28.80
2023-03-30T00:27:39.258Z,28.70
2023-03-30T00:30:11.736Z,28.70
2023-03-30T00:32:37.958Z,28.70
2023-03-30T00:35:04.727Z,28.70
2023-03-30T00:37:31.714Z,28.70
2023-03-30T00:39:58.076Z,28.70
2023-03-30T00:42:25.374Z,28.70
2023-03-30T00:45:17.187Z,28.70
2023-03-30T00:47:48.525Z,28.70
2023-03-30T00:50:18.023Z,28.80
2023-03-30T00:52:45.771Z,28.80
2023-03-30T00:55:12.363Z,28.70
2023-03-30T00:57:41.895Z,28.80
2023-03-30T01:00:10.855Z,28.80
2023-03-30T01:02:42.973Z,28.80
2023-03-30T01:05:11.189Z,28.80
2023-03-30T01:07:39.612Z,28.80
2023-03-30T01:10:07.937Z,28.80
2023-03-30T01:12:34.145Z,28.80
2023-03-30T01:15:00.501Z,28.80
2023-03-30T01:17:36.388Z,28.80
2023-03-30T01:20:34.148Z,28.80
2023-03-30T01:23:18.190Z,28.80
2023-03-30T01:26:22.637Z,28.70
2023-03-30T01:29:15.823Z,28.80
2023-03-30T01:32:01.394Z,28.80
2023-03-30T01:34:43.477Z,28.80
2023-03-30T01:37:24.527Z,28.80
2023-03-30T01:40:01.541Z,28.80
2023-03-30T01:42:35.520Z,28.80
2023-03-30T01:45:29.591Z,28.80
2023-03-30T01:48:00.995Z,28.80
2023-03-30T01:50:37.784Z,28.80
2023-03-30T01:53:16.189Z,28.80
2023-03-30T01:55:54.833Z,28.80
2023-03-30T01:58:25.243Z,28.80
2023-03-30T02:00:53.931Z,28.80
2023-03-30T02:03:32.434Z,28.80
2023-03-30T02:06:13.236Z,28.80
2023-03-30T02:08:40.638Z,28.90
2023-03-30T02:11:07.255Z,29.00
2023-03-30T02:13:35.501Z,29.10
2023-03-30T02:16:15.732Z,29.10
2023-03-30T02:18:41.873Z,29.20
2023-03-30T02:21:07.967Z,29.30
2023-03-30T02:23:38.775Z,29.30
2023-03-30T02:26:07.354Z,29.40
2023-03-30T02:28:35.543Z,29.40
2023-03-30T02:31:14.539Z,29.40
2023-03-30T02:34:12.273Z,29.60
2023-03-30T02:37:17.316Z,29.50
2023-03-30T02:40:20.308Z,29.60
2023-03-30T02:43:09.463Z,29.70
2023-03-30T02:45:52.855Z,29.80
2023-03-30T02:48:31.179Z,29.80
2023-03-30T02:51:18.812Z,29.80
2023-03-30T02:53:54.440Z,29.80
2023-03-30T02:56:26.505Z,29.90
2023-03-30T02:59:05.352Z,29.90
2023-03-30T03:02:04.305Z,30.00
2023-03-30T03:04:33.467Z,30.00
2023-03-30T03:07:01.936Z,30.00
2023-03-30T03:09:28.851Z,30.10
2023-03-30T03:11:55.519Z,30.80
2023-03-30T03:14:21.644Z,30.10
2023-03-30T03:16:47.818Z,30.10
2023-03-30T03:19:15.311Z,30.20
2023-03-30T03:21:41.399Z,30.20
2023-03-30T03:24:07.657Z,30.20
2023-03-30T03:26:33.846Z,30.30
2023-03-30T03:28:59.915Z,30.30
2023-03-30T03:31:26.650Z,30.40
2023-03-30T03:33:52.840Z,30.40
2023-03-30T03:36:19.317Z,30.40
2023-03-30T03:38:45.374Z,30.40
2023-03-30T03:41:11.637Z,30.40
2023-03-30T03:43:37.987Z,30.50
2023-03-30T03:46:04.520Z,31.80
2023-03-30T03:48:30.630Z,32.40
2023-03-30T03:50:58.478Z,32.80
2023-03-30T03:53:26.859Z,33.40
2023-03-30T03:55:53.969Z,33.70
2023-03-30T03:58:20.814Z,34.10
2023-03-30T04:00:47.717Z,34.30
2023-03-30T04:03:14.495Z,34.60
2023-03-30T04:05:41.234Z,34.50
2023-03-30T04:08:11.061Z,34.30
2023-03-30T04:10:38.986Z,33.90
2023-03-30T04:13:05.125Z,33.80
2023-03-30T04:15:31.533Z,33.60
2023-03-30T04:17:57.650Z,33.50
2023-03-30T04:20:26.065Z,33.50
2023-03-30T04:22:52.852Z,33.50
2023-03-30T04:25:24.978Z,33.40
2023-03-30T04:27:52.506Z,33.10
2023-03-30T04:30:21.755Z,33.00
2023-03-30T04:33:01.677Z,33.20
2023-03-30T04:35:31.755Z,33.30
2023-03-30T04:37:59.387Z,33.20
2023-03-30T04:40:26.039Z,33.30
2023-03-30T04:42:54.147Z,33.20
2023-03-30T04:45:20.518Z,33.10
2023-03-30T04:47:46.922Z,33.40
2023-03-30T04:50:13.816Z,33.10
2023-03-30T04:52:40.304Z,33.00
2023-03-30T04:55:08.058Z,33.10
2023-03-30T04:57:35.538Z,33.10
2023-03-30T05:00:01.734Z,33.20
2023-03-30T05:02:27.981Z,33.10
2023-03-30T05:04:54.076Z,33.40
2023-03-30T05:07:20.975Z,33.50
2023-03-30T05:09:47.097Z,33.20
2023-03-30T05:12:15.051Z,33.00
2023-03-30T05:14:42.128Z,32.90
2023-03-30T05:17:08.469Z,33.50
2023-03-30T05:19:34.653Z,32.90
2023-03-30T05:22:00.882Z,32.90
2023-03-30T05:24:28.161Z,32.80
2023-03-30T05:26:54.217Z,32.90
2023-03-30T05:29:20.320Z,33.00
2023-03-30T05:31:46.473Z,33.00
2023-03-30T05:34:12.620Z,33.10
2023-03-30T05:36:38.694Z,33.10
2023-03-30T05:39:04.772Z,33.10
2023-03-30T05:41:31.231Z,33.10
2023-03-30T05:43:57.344Z,33.40
2023-03-30T05:46:23.534Z,33.40
2023-03-30T05:48:49.671Z,33.30
2023-03-30T05:51:15.889Z,33.30
2023-03-30T05:53:41.962Z,33.40
2023-03-30T05:56:09.790Z,33.40
2023-03-30T05:58:36.334Z,33.40
2023-03-30T06:01:05.235Z,33.60
2023-03-30T06:03:32.554Z,33.60
2023-03-30T06:05:58.782Z,33.50
2023-03-30T06:08:26.399Z,33.50
2023-03-30T06:10:54.284Z,33.90
2023-03-30T06:13:20.472Z,33.90
2023-03-30T06:15:46.681Z,34.00
2023-03-30T06:18:13.153Z,33.90
2023-03-30T06:20:39.285Z,34.00
2023-03-30T06:23:05.455Z,33.90
2023-03-30T06:25:31.543Z,34.10
2023-03-30T06:27:57.755Z,33.80
2023-03-30T06:30:23.911Z,33.60
2023-03-30T06:32:49.990Z,33.60
2023-03-30T06:35:16.321Z,33.60
2023-03-30T06:37:42.505Z,33.60
2023-03-30T06:40:15.348Z,33.60
2023-03-30T06:43:03.048Z,33.50
2023-03-30T06:45:29.297Z,33.60
2023-03-30T06:47:55.696Z,33.60
2023-03-30T06:50:21.821Z,33.60
2023-03-30T06:52:47.931Z,33.60
2023-03-30T06:55:14.072Z,33.60
2023-03-30T06:57:40.452Z,33.60
2023-03-30T07:00:14.183Z,33.70
2023-03-30T07:02:41.538Z,33.70
2023-03-30T07:05:08.319Z,33.80
2023-03-30T07:07:35.453Z,33.80
2023-03-30T07:10:09.496Z,33.80
2023-03-30T07:12:40.164Z,33.80
2023-03-30T07:15:07.315Z,33.90
2023-03-30T07:17:35.124Z,33.80
2023-03-30T07:20:01.914Z,33.90
2023-03-30T07:22:28.057Z,33.90
2023-03-30T07:24:54.805Z,33.90
2023-03-30T07:27:25.330Z,33.90
2023-03-30T07:29:52.428Z,33.90
2023-03-30T07:32:19.440Z,33.80
2023-03-30T07:34:45.683Z,33.90
2023-03-30T07:37:13.598Z,33.90
2023-03-30T07:39:39.861Z,33.90
2023-03-30T07:42:06.440Z,34.00
2023-03-30T07:44:32.611Z,34.00
2023-03-30T07:46:59.120Z,34.00
2023-03-30T07:49:25.216Z,34.00
2023-03-30T07:51:53.244Z,34.00
2023-03-30T07:54:19.331Z,34.00
2023-03-30T07:56:51.816Z,34.00
2023-03-30T07:59:22.698Z,34.00
2023-03-30T08:01:49.745Z,34.10
2023-03-30T08:04:16.699Z,34.20
2023-03-30T08:06:42.871Z,34.20
2023-03-30T08:09:08.941Z,34.20
2023-03-30T08:11:37.663Z,34.20
2023-03-30T08:14:04.482Z,34.30
2023-03-30T08:16:30.964Z,34.30
2023-03-30T08:18:57.080Z,35.00
2023-03-30T08:21:25.450Z,34.30
2023-03-30T08:23:52.554Z,34.30
2023-03-30T08:26:19.858Z,34.40
2023-03-30T08:28:45.968Z,34.40
2023-03-30T08:31:12.063Z,34.40
2023-03-30T08:33:38.936Z,34.50
2023-03-30T08:36:05.412Z,34.50
2023-03-30T08:38:32.232Z,34.50
2023-03-30T08:40:58.329Z,34.50
2023-03-30T08:43:36.173Z,34.60
2023-03-30T08:46:03.413Z,34.70
2023-03-30T08:48:34.892Z,34.90
2023-03-30T08:51:03.660Z,34.70
2023-03-30T08:53:32.703Z,34.80
2023-03-30T08:56:10.405Z,34.60
2023-03-30T08:58:48.887Z,34.70
2023-03-30T09:01:55.515Z,34.90
2023-03-30T09:04:57.220Z,34.90
2023-03-30T09:07:25.262Z,35.00
2023-03-30T09:09:52.599Z,34.60
2023-03-30T09:12:33.548Z,34.40
2023-03-30T09:15:20.532Z,34.40
2023-03-30T09:18:10.568Z,34.30
2023-03-30T09:20:39.260Z,34.20
2023-03-30T09:23:11.190Z,34.30
2023-03-30T09:26:02.170Z,34.40
2023-03-30T09:28:40.083Z,34.40
2023-03-30T09:31:24.437Z,34.40
2023-03-30T09:34:09.185Z,34.40
2023-03-30T09:36:48.776Z,34.40
2023-03-30T09:39:21.675Z,34.40
2023-03-30T09:42:12.155Z,34.30
2023-03-30T09:44:48.744Z,34.40
2023-03-30T09:47:36.055Z,34.50
2023-03-30T09:50:09.063Z,34.60
2023-03-30T09:52:38.202Z,34.50
2023-03-30T09:55:26.460Z,34.40
2023-03-30T09:57:53.987Z,34.30
2023-03-30T10:00:30.729Z,34.40
2023-03-30T10:03:00.216Z,34.30
2023-03-30T10:05:27.120Z,35.00
2023-03-30T10:07:56.207Z,34.40
2023-03-30T10:10:25.678Z,34.30
2023-03-30T10:13:01.667Z,34.50
2023-03-30T10:15:31.872Z,34.40
2023-03-30T10:18:05.618Z,34.70
2023-03-30T10:20:38.299Z,34.60
2023-03-30T10:23:12.818Z,34.60
2023-03-30T10:25:41.401Z,34.50
2023-03-30T10:28:35.100Z,34.60
2023-03-30T10:31:04.775Z,34.50
2023-03-30T10:33:37.510Z,34.60
2023-03-30T10:36:05.102Z,34.80
2023-03-30T10:38:33.047Z,34.90
2023-03-30T10:41:12.750Z,34.80
2023-03-30T10:43:40.513Z,34.90
2023-03-30T10:46:20.226Z,34.90
2023-03-30T10:49:24.443Z,34.90
2023-03-30T10:51:59.264Z,35.00
2023-03-30T10:54:32.342Z,35.50
2023-03-30T10:57:13.110Z,35.30
2023-03-30T11:00:12.319Z,35.30
2023-03-30T11:03:07.416Z,35.20
2023-03-30T11:05:38.092Z,35.50
2023-03-30T11:08:23.636Z,35.20
2023-03-30T11:10:54.899Z,35.30
2023-03-30T11:13:38.273Z,35.50
2023-03-30T11:16:15.743Z,36.80
2023-03-30T11:18:52.870Z,37.10
2023-03-30T11:21:42.555Z,37.30
2023-03-30T11:24:19.115Z,37.30
2023-03-30T11:26:51.570Z,37.30
2023-03-30T11:29:30.745Z,37.50
2023-03-30T11:32:25.292Z,36.60
2023-03-30T11:35:12.280Z,36.20
2023-03-30T11:37:57.252Z,36.00
2023-03-30T11:40:34.557Z,36.10
2023-03-30T11:43:00.935Z,36.20
2023-03-30T11:46:06.072Z,36.30
2023-03-30T11:48:32.485Z,36.40
2023-03-30T11:51:37.781Z,36.50
2023-03-30T11:54:31.812Z,36.50
2023-03-30T11:57:25.721Z,36.60
2023-03-30T12:00:22.711Z,36.80
2023-03-30T12:03:27.076Z,37.00
2023-03-30T12:06:06.066Z,37.00
2023-03-30T12:08:46.986Z,36.90
2023-03-30T12:11:43.668Z,36.90
2023-03-30T12:14:29.072Z,36.80
2023-03-30T12:17:00.858Z,36.80
2023-03-30T12:19:53.520Z,36.80
2023-03-30T12:22:35.548Z,36.80
2023-03-30T12:25:25.310Z,36.80
2023-03-30T12:27:57.948Z,36.80
2023-03-30T12:30:28.270Z,36.80
2023-03-30T12:33:09.612Z,36.80
2023-03-30T12:35:47.752Z,36.80
2023-03-30T12:38:21.914Z,37.00
2023-03-30T12:40:54.832Z,36.80
2023-03-30T12:43:46.573Z,36.90
2023-03-30T12:46:27.572Z,36.90
2023-03-30T12:49:11.188Z,36.90
2023-03-30T12:52:08.844Z,36.90
2023-03-30T12:55:00.394Z,36.90
2023-03-30T12:57:50.121Z,37.00
2023-03-30T13:00:47.178Z,37.00
2023-03-30T13:03:28.005Z,37.10
2023-03-30T13:05:57.065Z,37.20
2023-03-30T13:08:35.190Z,37.20
2023-03-30T13:11:09.248Z,37.30
2023-03-30T13:13:55.287Z,37.30
2023-03-30T13:16:48.114Z,37.50
2023-03-30T13:19:24.120Z,37.50
2023-03-30T13:21:57.816Z,37.60
2023-03-30T13:24:31.963Z,37.60
2023-03-30T13:27:22.398Z,37.50
2023-03-30T13:30:01.656Z,37.60
2023-03-30T13:32:53.998Z,37.70
2023-03-30T13:35:30.151Z,37.70
2023-03-30T13:38:20.280Z,37.70
2023-03-30T13:41:04.670Z,37.80
2023-03-30T13:44:10.817Z,37.80
2023-03-30T13:46:57.668Z,37.90
2023-03-30T13:49:46.073Z,37.80
2023-03-30T13:52:17.020Z,37.80
2023-03-30T13:54:45.627Z,37.80
2023-03-30T13:57:34.725Z,37.80
2023-03-30T14:00:07.531Z,37.80
2023-03-30T14:02:39.540Z,38.00
2023-03-30T14:05:20.828Z,38.10
2023-03-30T14:07:48.319Z,38.10
2023-03-30T14:10:17.903Z,38.10
2023-03-30T14:12:46.954Z,38.20
2023-03-30T14:15:22.345Z,38.20
2023-03-30T14:17:54.529Z,38.40
2023-03-30T14:20:34.815Z,38.50
2023-03-30T14:23:02.604Z,38.60
2023-03-30T14:25:31.123Z,38.70
2023-03-30T14:28:01.926Z,38.70
2023-03-30T14:30:28.896Z,38.70
2023-03-30T14:33:06.709Z,38.70
2023-03-30T14:35:34.256Z,38.60
2023-03-30T14:38:15.945Z,38.60
2023-03-30T14:40:43.208Z,38.70
2023-03-30T14:43:15.355Z,38.80
2023-03-30T14:45:42.484Z,38.80
2023-03-30T14:48:28.001Z,38.90
2023-03-30T14:50:54.938Z,39.00
2023-03-30T14:53:26.712Z,39.00
2023-03-30T14:55:56.410Z,39.10
2023-03-30T14:58:28.035Z,39.10
2023-03-30T15:00:58.284Z,39.20
2023-03-30T15:03:34.027Z,39.10
2023-03-30T15:06:08.488Z,39.00
2023-03-30T15:08:39.713Z,38.90
2023-03-30T15:11:18.718Z,38.90
2023-03-30T15:13:52.157Z,39.00
2023-03-30T15:16:22.632Z,39.10
2023-03-30T15:18:51.837Z,39.20
2023-03-30T15:21:19.023Z,39.30
2023-03-30T15:23:47.957Z,40.10
2023-03-30T15:26:14.854Z,39.50
2023-03-30T15:28:50.774Z,39.60
2023-03-30T15:31:19.215Z,40.40
2023-03-30T15:33:51.412Z,39.80
2023-03-30T15:36:20.260Z,39.70
2023-03-30T15:38:49.176Z,39.70
2023-03-30T15:41:16.210Z,39.70
2023-03-30T15:44:12.494Z,39.70
2023-03-30T15:46:39.894Z,39.80
2023-03-30T15:49:07.611Z,39.90
2023-03-30T15:51:41.990Z,40.00
2023-03-30T15:54:24.004Z,40.00
2023-03-30T15:57:00.780Z,40.00
2023-03-30T15:59:32.033Z,40.00
2023-03-30T16:02:03.168Z,40.00
2023-03-30T16:04:31.879Z,40.10
2023-03-30T16:06:58.780Z,40.10
2023-03-30T16:09:25.048Z,40.10
2023-03-30T16:11:51.227Z,40.10
2023-03-30T16:14:19.560Z,40.20
2023-03-30T16:16:46.465Z,40.30
2023-03-30T16:19:15.309Z,40.30
2023-03-30T16:21:42.578Z,40.30
2023-03-30T16:24:10.796Z,40.40
2023-03-30T16:26:36.869Z,40.40
2023-03-30T16:29:03.007Z,40.40
2023-03-30T16:31:29.411Z,40.30
2023-03-30T16:33:55.489Z,40.40
2023-03-30T16:36:23.991Z,40.40
2023-03-30T16:38:50.307Z,40.30
2023-03-30T16:41:22.229Z,40.30
2023-03-30T16:43:48.819Z,40.30
2023-03-30T16:46:17.339Z,40.40
2023-03-30T16:48:43.872Z,40.50
2023-03-30T16:51:11.827Z,40.50
2023-03-30T16:53:37.904Z,40.60
2023-03-30T16:56:04.271Z,41.30
2023-03-30T16:58:30.500Z,40.60
2023-03-30T17:01:03.173Z,40.60
2023-03-30T17:03:30.342Z,40.60
2023-03-30T17:05:56.416Z,40.40
2023-03-30T17:08:25.197Z,40.20
2023-03-30T17:10:53.572Z,40.00
2023-03-30T17:13:20.086Z,39.80
2023-03-30T17:15:46.269Z,39.70
2023-03-30T17:18:17.154Z,39.50
2023-03-30T17:20:48.531Z,39.50
2023-03-30T17:23:18.226Z,39.40
2023-03-30T17:25:48.265Z,39.30
2023-03-30T17:28:27.425Z,39.10
2023-03-30T17:30:57.031Z,39.10
2023-03-30T17:33:23.629Z,39.00
2023-03-30T17:36:16.078Z,38.90
2023-03-30T17:38:43.430Z,38.80
2023-03-30T17:41:13.024Z,38.80
2023-03-30T17:43:40.242Z,38.70
2023-03-30T17:46:06.376Z,38.60
2023-03-30T17:48:32.713Z,38.60
2023-03-30T17:50:58.755Z,38.50
2023-03-30T17:53:25.011Z,38.50
2023-03-30T17:55:52.179Z,38.40
2023-03-30T17:58:31.478Z,38.40
2023-03-30T18:00:59.632Z,38.30
2023-03-30T18:03:28.224Z,38.40
2023-03-30T18:05:55.955Z,38.20
2023-03-30T18:08:23.882Z,38.20
2023-03-30T18:11:00.085Z,38.20
2023-03-30T18:13:27.994Z,38.10
2023-03-30T18:15:56.265Z,38.10
2023-03-30T18:18:24.429Z,38.00
2023-03-30T18:20:52.653Z,38.00
2023-03-30T18:23:19.419Z,38.00
2023-03-30T18:25:45.973Z,37.90
2023-03-30T18:28:17.252Z,37.80
2023-03-30T18:30:43.775Z,37.80
2023-03-30T18:33:09.909Z,37.80
2023-03-30T18:35:36.576Z,37.80
2023-03-30T18:38:03.703Z,37.70
2023-03-30T18:40:51.279Z,37.70
2023-03-30T18:43:17.366Z,37.70
2023-03-30T18:45:48.705Z,37.70
2023-03-30T18:48:18.612Z,37.60
2023-03-30T18:50:46.769Z,37.70
2023-03-30T18:53:17.685Z,37.60
2023-03-30T18:55:48.699Z,37.60
2023-03-30T18:58:20.416Z,37.60
2023-03-30T19:00:47.980Z,37.60
2023-03-30T19:03:15.306Z,37.50
2023-03-30T19:05:42.881Z,37.50
2023-03-30T19:08:17.727Z,37.50
2023-03-30T19:10:45.283Z,37.50
2023-03-30T19:13:13.398Z,37.50
2023-03-30T19:15:40.498Z,37.40
2023-03-30T19:18:07.734Z,37.40
2023-03-30T19:20:39.023Z,37.40
2023-03-30T19:23:06.018Z,37.50
2023-03-30T19:25:32.433Z,37.30
2023-03-30T19:28:03.601Z,37.50
2023-03-30T19:30:33.645Z,37.40
2023-03-30T19:33:03.723Z,37.40
2023-03-30T19:35:30.335Z,37.40
2023-03-30T19:37:57.074Z,37.40
2023-03-30T19:40:23.844Z,37.30
2023-03-30T19:42:51.077Z,37.40
2023-03-30T19:45:20.060Z,37.40
2023-03-30T19:47:46.406Z,37.30
2023-03-30T19:50:17.217Z,37.40
2023-03-30T19:52:46.319Z,37.30
2023-03-30T19:55:12.701Z,37.30
2023-03-30T19:57:38.782Z,37.20
2023-03-30T20:00:11.876Z,37.20
2023-03-30T20:02:39.358Z,37.20
2023-03-30T20:05:06.101Z,37.10
2023-03-30T20:07:32.333Z,37.10
2023-03-30T20:09:58.393Z,37.10
2023-03-30T20:12:24.583Z,37.10
2023-03-30T20:14:50.716Z,37.10
2023-03-30T20:17:16.779Z,37.00
2023-03-30T20:19:42.832Z,37.10
2023-03-30T20:22:08.937Z,37.00
2023-03-30T20:24:36.300Z,37.10
2023-03-30T20:27:02.484Z,37.00
2023-03-30T20:29:28.588Z,37.00
2023-03-30T20:31:54.785Z,37.00
2023-03-30T20:34:20.868Z,37.00
2023-03-30T20:36:49.145Z,37.00
2023-03-30T20:39:15.757Z,37.00
2023-03-30T20:41:42.045Z,37.00
2023-03-30T20:44:12.672Z,37.00
2023-03-30T20:46:42.524Z,37.00
2023-03-30T20:49:10.783Z,37.00
2023-03-30T20:51:39.826Z,37.00
2023-03-30T20:54:06.344Z,36.90
2023-03-30T20:56:32.963Z,37.00
2023-03-30T20:58:59.055Z,36.90
2023-03-30T21:01:27.407Z,36.90
2023-03-30T21:03:58.338Z,36.90
2023-03-30T21:06:26.933Z,36.90
2023-03-30T21:08:55.112Z,37.00
2023-03-30T21:11:22.271Z,36.90
2023-03-30T21:13:51.004Z,36.90
2023-03-30T21:16:17.546Z,36.90
2023-03-30T21:18:43.690Z,36.80
2023-03-30T21:21:10.415Z,36.80
2023-03-30T21:23:38.899Z,36.80
2023-03-30T21:26:06.682Z,36.80
2023-03-30T21:28:33.847Z,37.50
2023-03-30T21:31:01.321Z,36.80
2023-03-30T21:33:28.911Z,36.70
2023-03-30T21:35:57.812Z,36.70
2023-03-30T21:38:25.952Z,36.80
2023-03-30T21:41:04.090Z,36.70
2023-03-30T21:43:34.381Z,36.70
2023-03-30T21:46:06.034Z,36.80
2023-03-30T21:48:35.323Z,36.80
2023-03-30T21:51:16.183Z,36.70
2023-03-30T21:53:44.322Z,36.70
2023-03-30T21:56:11.340Z,36.70
2023-03-30T21:58:38.542Z,36.70
2023-03-30T22:01:11.819Z,36.60
2023-03-30T22:03:40.044Z,36.70
2023-03-30T22:06:08.068Z,36.60
2023-03-30T22:08:34.710Z,36.70
2023-03-30T22:11:04.126Z,36.60
2023-03-30T22:13:30.890Z,36.60
2023-03-30T22:16:27.486Z,36.60
2023-03-30T22:18:53.818Z,36.50
2023-03-30T22:21:25.346Z,36.60
2023-03-30T22:23:54.554Z,36.60
2023-03-30T22:26:21.625Z,36.60
2023-03-30T22:28:47.812Z,36.50
2023-03-30T22:31:15.015Z,36.50
2023-03-30T22:33:41.565Z,37.20
2023-03-30T22:36:22.202Z,36.50
2023-03-30T22:38:50.237Z,36.50
2023-03-30T22:41:18.154Z,36.50
2023-03-30T22:43:44.823Z,36.50
2023-03-30T22:46:11.286Z,36.50
2023-03-30T22:48:40.693Z,36.50
2023-03-30T22:51:07.571Z,36.50
2023-03-30T22:53:33.935Z,36.50
2023-03-30T22:56:00.968Z,36.50
2023-03-30T22:58:27.245Z,36.50
2023-03-30T23:01:00.237Z,36.50
2023-03-30T23:03:26.351Z,36.50
2023-03-30T23:05:52.782Z,36.50
2023-03-30T23:08:19.183Z,36.50
2023-03-30T23:10:45.313Z,36.50
2023-03-30T23:13:11.350Z,36.50
2023-03-30T23:15:37.381Z,36.50
2023-03-30T23:18:05.323Z,36.40
2023-03-30T23:20:31.419Z,36.40
2023-03-30T23:22:57.449Z,37.10
2023-03-30T23:25:24.697Z,36.40
2023-03-30T23:27:50.909Z,36.40
2023-03-30T23:30:17.160Z,36.40
2023-03-30T23:32:43.264Z,36.40
2023-03-30T23:35:09.437Z,36.40
2023-03-30T23:37:36.301Z,36.40
2023-03-30T23:40:06.669Z,36.40
2023-03-30T23:42:32.988Z,36.40
2023-03-30T23:44:59.029Z,36.40
2023-03-30T23:47:26.570Z,36.40
2023-03-30T23:49:52.637Z,36.40
2023-03-30T23:52:18.683Z,36.30
2023-03-30T23:54:44.714Z,36.40
2023-03-30T23:57:11.274Z,36.30
2023-03-30T23:59:37.359Z,36.30
